sensor_id;sensor_type;location;lat;lon;timestamp;P1;durP1;ratioP1;P2;durP2;ratioP2
3683;SDS011;1858;48.716;9.648;2023-04-25T00:01:24;3.20;;;1.00;;
3683;SDS011;1858;48.716;9.648;2023-04-25T00:03:53;2.67;;;1.50;;
3683;SDS011;1858;48.716;9.648;2023-04-25T00:06:21;3.33;;;1.57;;
3683;SDS011;1858;48.716;9.648;2023-04-25T00:08:52;1.97;;;1.23;;
3683;SDS011;1858;48.716;9.648;2023-04-25T00:11:22;3.80;;;1.70;;
3683;SDS011;1858;48.716;9.648;2023-04-25T00:13:51;3.60;;;1.10;;
3683;SDS011;1858;48.716;9.648;2023-04-25T00:16:19;4.00;;;1.60;;
3683;SDS011;1858;48.716;9.648;2023-04-25T00:18:47;2.43;;;1.30;;
3683;SDS011;1858;48.716;9.648;2023-04-25T00:21:18;3.10;;;1.60;;
3683;SDS011;1858;48.716;9.648;2023-04-25T00:23:47;2.63;;;1.77;;
3683;SDS011;1858;48.716;9.648;2023-04-25T00:26:15;2.50;;;1.27;;
3683;SDS011;1858;48.716;9.648;2023-04-25T00:28:44;3.80;;;1.17;;
3683;SDS011;1858;48.716;9.648;2023-04-25T00:31:12;2.77;;;1.40;;
3683;SDS011;1858;48.716;9.648;2023-04-25T00:33:41;2.07;;;1.20;;
3683;SDS011;1858;48.716;9.648;2023-04-25T00:36:09;2.10;;;1.10;;
3683;SDS011;1858;48.716;9.648;2023-04-25T00:38:38;2.60;;;1.10;;
3683;SDS011;1858;48.716;9.648;2023-04-25T00:41:06;3.30;;;1.43;;
3683;SDS011;1858;48.716;9.648;2023-04-25T00:43:36;1.90;;;0.87;;
3683;SDS011;1858;48.716;9.648;2023-04-25T00:46:05;2.33;;;1.50;;
3683;SDS011;1858;48.716;9.648;2023-04-25T00:48:33;3.20;;;1.40;;
3683;SDS011;1858;48.716;9.648;2023-04-25T00:51:01;3.20;;;1.60;;
3683;SDS011;1858;48.716;9.648;2023-04-25T00:53:30;2.10;;;1.23;;
3683;SDS011;1858;48.716;9.648;2023-04-25T00:56:03;3.80;;;1.67;;
3683;SDS011;1858;48.716;9.648;2023-04-25T00:58:29;2.60;;;1.47;;
3683;SDS011;1858;48.716;9.648;2023-04-25T01:00:57;2.43;;;1.77;;
3683;SDS011;1858;48.716;9.648;2023-04-25T01:03:26;3.23;;;1.70;;
3683;SDS011;1858;48.716;9.648;2023-04-25T01:05:56;2.27;;;1.23;;
3683;SDS011;1858;48.716;9.648;2023-04-25T01:08:24;5.37;;;1.50;;
3683;SDS011;1858;48.716;9.648;2023-04-25T01:10:56;2.57;;;1.70;;
3683;SDS011;1858;48.716;9.648;2023-04-25T01:13:25;3.60;;;2.17;;
3683;SDS011;1858;48.716;9.648;2023-04-25T01:15:54;3.03;;;1.60;;
3683;SDS011;1858;48.716;9.648;2023-04-25T01:18:23;3.13;;;1.83;;
3683;SDS011;1858;48.716;9.648;2023-04-25T01:20:52;2.80;;;1.57;;
3683;SDS011;1858;48.716;9.648;2023-04-25T01:23:20;4.07;;;1.93;;
3683;SDS011;1858;48.716;9.648;2023-04-25T01:25:53;2.53;;;1.03;;
3683;SDS011;1858;48.716;9.648;2023-04-25T01:28:23;4.43;;;1.97;;
3683;SDS011;1858;48.716;9.648;2023-04-25T01:30:52;2.03;;;1.10;;
3683;SDS011;1858;48.716;9.648;2023-04-25T01:33:23;2.93;;;1.40;;
3683;SDS011;1858;48.716;9.648;2023-04-25T01:35:51;2.90;;;1.30;;
3683;SDS011;1858;48.716;9.648;2023-04-25T01:38:27;1.93;;;0.73;;
3683;SDS011;1858;48.716;9.648;2023-04-25T01:40:55;2.90;;;1.67;;
3683;SDS011;1858;48.716;9.648;2023-04-25T01:43:24;3.07;;;1.20;;
3683;SDS011;1858;48.716;9.648;2023-04-25T01:45:53;2.90;;;1.40;;
3683;SDS011;1858;48.716;9.648;2023-04-25T01:48:21;3.17;;;1.53;;
3683;SDS011;1858;48.716;9.648;2023-04-25T01:50:50;1.80;;;1.10;;
3683;SDS011;1858;48.716;9.648;2023-04-25T01:53:18;8.30;;;2.37;;
3683;SDS011;1858;48.716;9.648;2023-04-25T01:55:46;3.40;;;1.37;;
3683;SDS011;1858;48.716;9.648;2023-04-25T01:58:15;3.70;;;2.17;;
3683;SDS011;1858;48.716;9.648;2023-04-25T02:00:43;2.80;;;1.60;;
3683;SDS011;1858;48.716;9.648;2023-04-25T02:03:12;2.73;;;1.73;;
3683;SDS011;1858;48.716;9.648;2023-04-25T02:05:40;2.27;;;1.33;;
3683;SDS011;1858;48.716;9.648;2023-04-25T02:08:09;2.60;;;1.73;;
3683;SDS011;1858;48.716;9.648;2023-04-25T02:10:37;2.70;;;1.30;;
3683;SDS011;1858;48.716;9.648;2023-04-25T02:13:06;4.63;;;1.70;;
3683;SDS011;1858;48.716;9.648;2023-04-25T02:15:34;2.50;;;1.70;;
3683;SDS011;1858;48.716;9.648;2023-04-25T02:18:03;3.70;;;1.80;;
3683;SDS011;1858;48.716;9.648;2023-04-25T02:20:34;3.57;;;1.10;;
3683;SDS011;1858;48.716;9.648;2023-04-25T02:23:05;2.80;;;1.50;;
3683;SDS011;1858;48.716;9.648;2023-04-25T02:25:33;4.47;;;1.90;;
3683;SDS011;1858;48.716;9.648;2023-04-25T02:28:02;3.30;;;1.83;;
3683;SDS011;1858;48.716;9.648;2023-04-25T02:30:30;2.70;;;1.73;;
3683;SDS011;1858;48.716;9.648;2023-04-25T02:33:02;2.27;;;1.20;;
3683;SDS011;1858;48.716;9.648;2023-04-25T02:35:32;2.20;;;1.27;;
3683;SDS011;1858;48.716;9.648;2023-04-25T02:38:00;3.70;;;1.83;;
3683;SDS011;1858;48.716;9.648;2023-04-25T02:40:31;4.63;;;1.80;;
3683;SDS011;1858;48.716;9.648;2023-04-25T02:43:00;2.83;;;1.40;;
3683;SDS011;1858;48.716;9.648;2023-04-25T02:45:28;2.20;;;1.23;;
3683;SDS011;1858;48.716;9.648;2023-04-25T02:47:57;6.47;;;1.50;;
3683;SDS011;1858;48.716;9.648;2023-04-25T02:50:25;3.47;;;1.77;;
3683;SDS011;1858;48.716;9.648;2023-04-25T02:52:55;5.57;;;1.77;;
3683;SDS011;1858;48.716;9.648;2023-04-25T02:55:23;3.73;;;2.30;;
3683;SDS011;1858;48.716;9.648;2023-04-25T02:57:52;2.50;;;1.93;;
3683;SDS011;1858;48.716;9.648;2023-04-25T03:00:22;3.10;;;1.77;;
3683;SDS011;1858;48.716;9.648;2023-04-25T03:02:50;2.33;;;1.20;;
3683;SDS011;1858;48.716;9.648;2023-04-25T03:05:18;2.20;;;1.37;;
3683;SDS011;1858;48.716;9.648;2023-04-25T03:07:48;2.73;;;1.43;;
3683;SDS011;1858;48.716;9.648;2023-04-25T03:10:17;3.50;;;1.80;;
3683;SDS011;1858;48.716;9.648;2023-04-25T03:12:45;3.70;;;1.47;;
3683;SDS011;1858;48.716;9.648;2023-04-25T03:15:13;3.37;;;1.60;;
3683;SDS011;1858;48.716;9.648;2023-04-25T03:17:43;2.17;;;1.30;;
3683;SDS011;1858;48.716;9.648;2023-04-25T03:20:11;3.50;;;2.30;;
3683;SDS011;1858;48.716;9.648;2023-04-25T03:22:39;3.47;;;2.03;;
3683;SDS011;1858;48.716;9.648;2023-04-25T03:25:08;2.73;;;1.30;;
3683;SDS011;1858;48.716;9.648;2023-04-25T03:27:36;7.13;;;2.00;;
3683;SDS011;1858;48.716;9.648;2023-04-25T03:30:05;2.27;;;1.50;;
3683;SDS011;1858;48.716;9.648;2023-04-25T03:32:34;2.70;;;1.40;;
3683;SDS011;1858;48.716;9.648;2023-04-25T03:35:03;3.63;;;1.93;;
3683;SDS011;1858;48.716;9.648;2023-04-25T03:37:32;2.30;;;1.40;;
3683;SDS011;1858;48.716;9.648;2023-04-25T03:40:00;3.33;;;1.23;;
3683;SDS011;1858;48.716;9.648;2023-04-25T03:42:29;4.20;;;1.90;;
3683;SDS011;1858;48.716;9.648;2023-04-25T03:44:57;3.43;;;1.43;;
3683;SDS011;1858;48.716;9.648;2023-04-25T03:47:25;2.93;;;2.07;;
3683;SDS011;1858;48.716;9.648;2023-04-25T03:49:54;2.67;;;1.67;;
3683;SDS011;1858;48.716;9.648;2023-04-25T03:52:22;2.63;;;1.70;;
3683;SDS011;1858;48.716;9.648;2023-04-25T03:54:52;3.00;;;1.77;;
3683;SDS011;1858;48.716;9.648;2023-04-25T03:57:25;3.30;;;1.63;;
3683;SDS011;1858;48.716;9.648;2023-04-25T03:59:55;2.97;;;1.80;;
3683;SDS011;1858;48.716;9.648;2023-04-25T04:02:24;2.57;;;1.47;;
3683;SDS011;1858;48.716;9.648;2023-04-25T04:04:52;2.53;;;1.60;;
3683;SDS011;1858;48.716;9.648;2023-04-25T04:07:22;3.73;;;1.47;;
3683;SDS011;1858;48.716;9.648;2023-04-25T04:09:52;2.63;;;1.80;;
3683;SDS011;1858;48.716;9.648;2023-04-25T04:12:21;3.13;;;1.80;;
3683;SDS011;1858;48.716;9.648;2023-04-25T04:14:49;2.43;;;1.67;;
3683;SDS011;1858;48.716;9.648;2023-04-25T04:17:17;4.90;;;1.50;;
3683;SDS011;1858;48.716;9.648;2023-04-25T04:19:46;2.90;;;1.87;;
3683;SDS011;1858;48.716;9.648;2023-04-25T04:22:14;2.93;;;1.70;;
3683;SDS011;1858;48.716;9.648;2023-04-25T04:24:43;3.23;;;1.70;;
3683;SDS011;1858;48.716;9.648;2023-04-25T04:27:12;2.60;;;1.53;;
3683;SDS011;1858;48.716;9.648;2023-04-25T04:29:41;2.47;;;1.30;;
3683;SDS011;1858;48.716;9.648;2023-04-25T04:32:10;3.07;;;1.63;;
3683;SDS011;1858;48.716;9.648;2023-04-25T04:34:40;2.50;;;1.50;;
3683;SDS011;1858;48.716;9.648;2023-04-25T04:37:08;3.30;;;1.73;;
3683;SDS011;1858;48.716;9.648;2023-04-25T04:39:39;3.38;;;1.48;;
3683;SDS011;1858;48.716;9.648;2023-04-25T04:42:07;2.77;;;1.40;;
3683;SDS011;1858;48.716;9.648;2023-04-25T04:44:38;3.60;;;2.03;;
3683;SDS011;1858;48.716;9.648;2023-04-25T04:47:06;2.67;;;1.57;;
3683;SDS011;1858;48.716;9.648;2023-04-25T04:49:36;3.80;;;1.90;;
3683;SDS011;1858;48.716;9.648;2023-04-25T04:52:04;2.80;;;1.70;;
3683;SDS011;1858;48.716;9.648;2023-04-25T04:54:33;2.40;;;1.30;;
3683;SDS011;1858;48.716;9.648;2023-04-25T04:57:08;4.17;;;1.33;;
3683;SDS011;1858;48.716;9.648;2023-04-25T04:59:37;2.60;;;1.30;;
3683;SDS011;1858;48.716;9.648;2023-04-25T05:02:05;7.43;;;1.90;;
3683;SDS011;1858;48.716;9.648;2023-04-25T05:04:33;2.20;;;1.07;;
3683;SDS011;1858;48.716;9.648;2023-04-25T05:07:02;2.80;;;1.30;;
3683;SDS011;1858;48.716;9.648;2023-04-25T05:09:30;4.77;;;1.13;;
3683;SDS011;1858;48.716;9.648;2023-04-25T05:11:58;2.40;;;1.50;;
3683;SDS011;1858;48.716;9.648;2023-04-25T05:14:27;2.13;;;1.10;;
3683;SDS011;1858;48.716;9.648;2023-04-25T05:16:57;2.50;;;1.57;;
3683;SDS011;1858;48.716;9.648;2023-04-25T05:19:27;3.20;;;1.83;;
3683;SDS011;1858;48.716;9.648;2023-04-25T05:21:56;2.20;;;1.40;;
3683;SDS011;1858;48.716;9.648;2023-04-25T05:24:24;2.90;;;1.27;;
3683;SDS011;1858;48.716;9.648;2023-04-25T05:26:53;3.17;;;1.70;;
3683;SDS011;1858;48.716;9.648;2023-04-25T05:29:21;2.30;;;1.60;;
3683;SDS011;1858;48.716;9.648;2023-04-25T05:31:49;3.23;;;1.13;;
3683;SDS011;1858;48.716;9.648;2023-04-25T05:34:19;3.17;;;1.40;;
3683;SDS011;1858;48.716;9.648;2023-04-25T05:36:49;3.30;;;2.47;;
3683;SDS011;1858;48.716;9.648;2023-04-25T05:39:18;3.00;;;1.60;;
3683;SDS011;1858;48.716;9.648;2023-04-25T05:41:46;2.77;;;1.67;;
3683;SDS011;1858;48.716;9.648;2023-04-25T05:44:14;2.57;;;1.47;;
3683;SDS011;1858;48.716;9.648;2023-04-25T05:46:43;5.70;;;2.20;;
3683;SDS011;1858;48.716;9.648;2023-04-25T05:49:11;2.47;;;1.73;;
3683;SDS011;1858;48.716;9.648;2023-04-25T05:51:40;4.13;;;1.00;;
3683;SDS011;1858;48.716;9.648;2023-04-25T05:54:08;2.23;;;1.43;;
3683;SDS011;1858;48.716;9.648;2023-04-25T05:56:37;2.30;;;1.23;;
3683;SDS011;1858;48.716;9.648;2023-04-25T05:59:05;3.83;;;1.80;;
3683;SDS011;1858;48.716;9.648;2023-04-25T06:01:34;3.00;;;1.90;;
3683;SDS011;1858;48.716;9.648;2023-04-25T06:04:02;3.13;;;1.33;;
3683;SDS011;1858;48.716;9.648;2023-04-25T06:06:34;4.23;;;1.50;;
3683;SDS011;1858;48.716;9.648;2023-04-25T06:09:02;2.40;;;1.53;;
3683;SDS011;1858;48.716;9.648;2023-04-25T06:11:31;3.20;;;2.43;;
3683;SDS011;1858;48.716;9.648;2023-04-25T06:13:59;3.60;;;1.53;;
3683;SDS011;1858;48.716;9.648;2023-04-25T06:16:27;2.43;;;1.57;;
3683;SDS011;1858;48.716;9.648;2023-04-25T06:18:56;3.87;;;1.53;;
3683;SDS011;1858;48.716;9.648;2023-04-25T06:21:24;2.83;;;1.80;;
3683;SDS011;1858;48.716;9.648;2023-04-25T06:23:53;2.20;;;1.20;;
3683;SDS011;1858;48.716;9.648;2023-04-25T06:26:22;4.60;;;1.77;;
3683;SDS011;1858;48.716;9.648;2023-04-25T06:28:50;2.30;;;1.13;;
3683;SDS011;1858;48.716;9.648;2023-04-25T06:31:19;4.20;;;1.53;;
3683;SDS011;1858;48.716;9.648;2023-04-25T06:33:49;4.07;;;1.33;;
3683;SDS011;1858;48.716;9.648;2023-04-25T06:36:17;3.47;;;1.73;;
3683;SDS011;1858;48.716;9.648;2023-04-25T06:38:48;3.00;;;1.40;;
3683;SDS011;1858;48.716;9.648;2023-04-25T06:41:17;6.50;;;2.10;;
3683;SDS011;1858;48.716;9.648;2023-04-25T06:43:51;2.53;;;1.30;;
3683;SDS011;1858;48.716;9.648;2023-04-25T06:46:16;2.17;;;1.47;;
3683;SDS011;1858;48.716;9.648;2023-04-25T06:48:44;2.57;;;1.50;;
3683;SDS011;1858;48.716;9.648;2023-04-25T06:51:14;3.00;;;1.50;;
3683;SDS011;1858;48.716;9.648;2023-04-25T06:53:42;2.87;;;1.70;;
3683;SDS011;1858;48.716;9.648;2023-04-25T06:56:17;10.93;;;2.70;;
3683;SDS011;1858;48.716;9.648;2023-04-25T07:02:03;5.87;;;1.30;;
3683;SDS011;1858;48.716;9.648;2023-04-25T07:04:34;2.67;;;1.30;;
3683;SDS011;1858;48.716;9.648;2023-04-25T07:07:02;5.30;;;1.40;;
3683;SDS011;1858;48.716;9.648;2023-04-25T07:09:31;3.60;;;1.40;;
3683;SDS011;1858;48.716;9.648;2023-04-25T07:12:00;2.63;;;1.30;;
3683;SDS011;1858;48.716;9.648;2023-04-25T07:14:29;3.80;;;1.80;;
3683;SDS011;1858;48.716;9.648;2023-04-25T07:16:57;2.63;;;1.10;;
3683;SDS011;1858;48.716;9.648;2023-04-25T07:19:29;2.23;;;1.13;;
3683;SDS011;1858;48.716;9.648;2023-04-25T07:22:00;6.97;;;2.50;;
3683;SDS011;1858;48.716;9.648;2023-04-25T07:24:27;4.07;;;2.10;;
3683;SDS011;1858;48.716;9.648;2023-04-25T07:26:57;3.43;;;1.10;;
3683;SDS011;1858;48.716;9.648;2023-04-25T07:29:31;3.07;;;1.33;;
3683;SDS011;1858;48.716;9.648;2023-04-25T07:31:56;2.83;;;1.23;;
3683;SDS011;1858;48.716;9.648;2023-04-25T07:34:25;2.50;;;1.13;;
3683;SDS011;1858;48.716;9.648;2023-04-25T07:36:53;2.07;;;1.03;;
3683;SDS011;1858;48.716;9.648;2023-04-25T07:39:21;1.70;;;0.70;;
3683;SDS011;1858;48.716;9.648;2023-04-25T07:41:52;3.10;;;1.43;;
3683;SDS011;1858;48.716;9.648;2023-04-25T07:44:21;3.13;;;1.67;;
3683;SDS011;1858;48.716;9.648;2023-04-25T07:46:49;2.90;;;1.53;;
3683;SDS011;1858;48.716;9.648;2023-04-25T07:49:18;2.73;;;1.10;;
3683;SDS011;1858;48.716;9.648;2023-04-25T07:51:46;2.10;;;0.83;;
3683;SDS011;1858;48.716;9.648;2023-04-25T07:54:15;2.50;;;1.00;;
3683;SDS011;1858;48.716;9.648;2023-04-25T07:56:44;2.07;;;1.20;;
3683;SDS011;1858;48.716;9.648;2023-04-25T07:59:12;3.27;;;1.43;;
3683;SDS011;1858;48.716;9.648;2023-04-25T08:01:41;3.60;;;1.50;;
3683;SDS011;1858;48.716;9.648;2023-04-25T08:04:09;2.73;;;1.23;;
3683;SDS011;1858;48.716;9.648;2023-04-25T08:06:37;2.60;;;1.30;;
3683;SDS011;1858;48.716;9.648;2023-04-25T08:09:07;3.10;;;1.63;;
3683;SDS011;1858;48.716;9.648;2023-04-25T08:11:35;3.00;;;1.70;;
3683;SDS011;1858;48.716;9.648;2023-04-25T08:14:04;2.43;;;1.37;;
3683;SDS011;1858;48.716;9.648;2023-04-25T08:16:33;1.80;;;1.00;;
3683;SDS011;1858;48.716;9.648;2023-04-25T08:19:01;3.13;;;1.40;;
3683;SDS011;1858;48.716;9.648;2023-04-25T08:21:30;2.70;;;1.73;;
3683;SDS011;1858;48.716;9.648;2023-04-25T08:23:59;2.10;;;1.13;;
3683;SDS011;1858;48.716;9.648;2023-04-25T08:26:28;2.23;;;1.20;;
3683;SDS011;1858;48.716;9.648;2023-04-25T08:28:56;2.43;;;1.47;;
3683;SDS011;1858;48.716;9.648;2023-04-25T08:31:25;2.13;;;0.90;;
3683;SDS011;1858;48.716;9.648;2023-04-25T08:33:54;3.00;;;1.23;;
3683;SDS011;1858;48.716;9.648;2023-04-25T08:36:22;2.33;;;1.10;;
3683;SDS011;1858;48.716;9.648;2023-04-25T08:38:55;2.63;;;1.60;;
3683;SDS011;1858;48.716;9.648;2023-04-25T08:41:24;3.40;;;1.73;;
3683;SDS011;1858;48.716;9.648;2023-04-25T08:43:55;2.70;;;1.30;;
3683;SDS011;1858;48.716;9.648;2023-04-25T08:46:26;2.17;;;0.87;;
3683;SDS011;1858;48.716;9.648;2023-04-25T08:48:56;2.10;;;1.10;;
3683;SDS011;1858;48.716;9.648;2023-04-25T08:51:31;5.50;;;1.73;;
3683;SDS011;1858;48.716;9.648;2023-04-25T08:54:05;2.57;;;1.37;;
3683;SDS011;1858;48.716;9.648;2023-04-25T08:56:41;3.63;;;3.03;;
3683;SDS011;1858;48.716;9.648;2023-04-25T08:59:16;5.47;;;2.23;;
3683;SDS011;1858;48.716;9.648;2023-04-25T09:01:45;2.00;;;0.97;;
3683;SDS011;1858;48.716;9.648;2023-04-25T09:04:15;2.57;;;1.40;;
3683;SDS011;1858;48.716;9.648;2023-04-25T09:06:47;3.70;;;1.70;;
3683;SDS011;1858;48.716;9.648;2023-04-25T09:09:15;3.30;;;1.40;;
3683;SDS011;1858;48.716;9.648;2023-04-25T09:11:44;2.70;;;1.50;;
3683;SDS011;1858;48.716;9.648;2023-04-25T09:14:16;2.77;;;1.93;;
3683;SDS011;1858;48.716;9.648;2023-04-25T09:22:05;4.13;;;1.73;;
3683;SDS011;1858;48.716;9.648;2023-04-25T09:24:37;4.00;;;1.50;;
3683;SDS011;1858;48.716;9.648;2023-04-25T09:27:10;2.70;;;1.70;;
3683;SDS011;1858;48.716;9.648;2023-04-25T09:29:40;2.60;;;1.37;;
3683;SDS011;1858;48.716;9.648;2023-04-25T09:32:18;3.77;;;1.60;;
3683;SDS011;1858;48.716;9.648;2023-04-25T09:34:48;2.67;;;1.43;;
3683;SDS011;1858;48.716;9.648;2023-04-25T09:37:18;2.17;;;1.07;;
3683;SDS011;1858;48.716;9.648;2023-04-25T09:39:50;2.63;;;1.53;;
3683;SDS011;1858;48.716;9.648;2023-04-25T09:42:23;5.23;;;2.17;;
3683;SDS011;1858;48.716;9.648;2023-04-25T09:44:54;2.10;;;1.20;;
3683;SDS011;1858;48.716;9.648;2023-04-25T09:47:24;3.47;;;2.00;;
3683;SDS011;1858;48.716;9.648;2023-04-25T09:49:55;2.83;;;1.23;;
3683;SDS011;1858;48.716;9.648;2023-04-25T09:52:24;3.40;;;1.63;;
3683;SDS011;1858;48.716;9.648;2023-04-25T09:54:53;4.17;;;1.50;;
3683;SDS011;1858;48.716;9.648;2023-04-25T09:57:22;2.37;;;1.90;;
3683;SDS011;1858;48.716;9.648;2023-04-25T09:59:54;2.77;;;1.70;;
3683;SDS011;1858;48.716;9.648;2023-04-25T10:02:24;5.43;;;1.73;;
3683;SDS011;1858;48.716;9.648;2023-04-25T10:04:54;5.40;;;2.87;;
3683;SDS011;1858;48.716;9.648;2023-04-25T10:07:24;3.67;;;2.57;;
3683;SDS011;1858;48.716;9.648;2023-04-25T10:09:58;2.77;;;1.80;;
3683;SDS011;1858;48.716;9.648;2023-04-25T10:12:30;5.00;;;1.57;;
3683;SDS011;1858;48.716;9.648;2023-04-25T10:14:59;5.27;;;1.90;;
3683;SDS011;1858;48.716;9.648;2023-04-25T10:17:30;4.20;;;1.90;;
3683;SDS011;1858;48.716;9.648;2023-04-25T10:20:01;2.87;;;1.97;;
3683;SDS011;1858;48.716;9.648;2023-04-25T10:22:36;3.60;;;2.03;;
3683;SDS011;1858;48.716;9.648;2023-04-25T10:25:12;4.63;;;3.30;;
3683;SDS011;1858;48.716;9.648;2023-04-25T10:27:41;2.90;;;1.70;;
3683;SDS011;1858;48.716;9.648;2023-04-25T10:30:13;3.70;;;2.33;;
3683;SDS011;1858;48.716;9.648;2023-04-25T10:32:42;2.70;;;1.50;;
3683;SDS011;1858;48.716;9.648;2023-04-25T10:35:15;4.10;;;2.23;;
3683;SDS011;1858;48.716;9.648;2023-04-25T10:37:57;1.67;;;1.03;;
3683;SDS011;1858;48.716;9.648;2023-04-25T10:40:33;4.40;;;1.40;;
3683;SDS011;1858;48.716;9.648;2023-04-25T10:48:57;5.23;;;2.53;;
3683;SDS011;1858;48.716;9.648;2023-04-25T10:51:27;3.30;;;1.70;;
3683;SDS011;1858;48.716;9.648;2023-04-25T10:53:58;3.20;;;2.33;;
3683;SDS011;1858;48.716;9.648;2023-04-25T10:56:29;2.90;;;1.53;;
3683;SDS011;1858;48.716;9.648;2023-04-25T10:59:08;4.87;;;2.13;;
3683;SDS011;1858;48.716;9.648;2023-04-25T11:01:46;3.77;;;2.07;;
3683;SDS011;1858;48.716;9.648;2023-04-25T11:04:23;3.03;;;1.40;;
3683;SDS011;1858;48.716;9.648;2023-04-25T11:09:52;2.63;;;1.13;;
3683;SDS011;1858;48.716;9.648;2023-04-25T11:12:21;2.13;;;1.20;;
3683;SDS011;1858;48.716;9.648;2023-04-25T11:14:50;2.77;;;1.77;;
3683;SDS011;1858;48.716;9.648;2023-04-25T11:17:22;2.70;;;1.13;;
3683;SDS011;1858;48.716;9.648;2023-04-25T11:19:54;2.97;;;1.40;;
3683;SDS011;1858;48.716;9.648;2023-04-25T11:22:23;3.27;;;1.83;;
3683;SDS011;1858;48.716;9.648;2023-04-25T11:24:54;3.40;;;1.77;;
3683;SDS011;1858;48.716;9.648;2023-04-25T11:27:22;4.60;;;1.70;;
3683;SDS011;1858;48.716;9.648;2023-04-25T11:29:51;2.93;;;1.50;;
3683;SDS011;1858;48.716;9.648;2023-04-25T11:32:23;2.40;;;0.90;;
3683;SDS011;1858;48.716;9.648;2023-04-25T11:34:52;1.70;;;0.73;;
3683;SDS011;1858;48.716;9.648;2023-04-25T11:37:21;3.20;;;0.70;;
3683;SDS011;1858;48.716;9.648;2023-04-25T11:39:49;2.30;;;1.17;;
3683;SDS011;1858;48.716;9.648;2023-04-25T11:42:18;1.90;;;0.83;;
3683;SDS011;1858;48.716;9.648;2023-04-25T11:44:47;1.53;;;0.80;;
3683;SDS011;1858;48.716;9.648;2023-04-25T11:47:21;2.13;;;0.90;;
3683;SDS011;1858;48.716;9.648;2023-04-25T11:49:45;2.43;;;0.97;;
3683;SDS011;1858;48.716;9.648;2023-04-25T11:52:14;2.00;;;0.80;;
3683;SDS011;1858;48.716;9.648;2023-04-25T11:54:42;2.47;;;1.07;;
3683;SDS011;1858;48.716;9.648;2023-04-25T11:57:13;2.27;;;0.80;;
3683;SDS011;1858;48.716;9.648;2023-04-25T11:59:41;2.03;;;1.07;;
3683;SDS011;1858;48.716;9.648;2023-04-25T12:02:23;1.77;;;0.90;;
3683;SDS011;1858;48.716;9.648;2023-04-25T12:04:42;2.57;;;1.27;;
3683;SDS011;1858;48.716;9.648;2023-04-25T12:07:11;2.27;;;1.37;;
3683;SDS011;1858;48.716;9.648;2023-04-25T12:09:50;3.80;;;1.60;;
3683;SDS011;1858;48.716;9.648;2023-04-25T12:12:18;3.23;;;1.00;;
3683;SDS011;1858;48.716;9.648;2023-04-25T12:14:47;1.60;;;0.77;;
3683;SDS011;1858;48.716;9.648;2023-04-25T12:17:16;2.20;;;0.90;;
3683;SDS011;1858;48.716;9.648;2023-04-25T12:19:46;1.50;;;0.67;;
3683;SDS011;1858;48.716;9.648;2023-04-25T12:22:21;2.03;;;1.00;;
3683;SDS011;1858;48.716;9.648;2023-04-25T12:24:51;2.00;;;0.73;;
3683;SDS011;1858;48.716;9.648;2023-04-25T12:27:20;1.80;;;0.70;;
3683;SDS011;1858;48.716;9.648;2023-04-25T12:29:52;1.50;;;0.60;;
3683;SDS011;1858;48.716;9.648;2023-04-25T12:32:22;2.23;;;0.87;;
3683;SDS011;1858;48.716;9.648;2023-04-25T12:34:51;1.57;;;0.57;;
3683;SDS011;1858;48.716;9.648;2023-04-25T12:37:24;1.60;;;0.83;;
3683;SDS011;1858;48.716;9.648;2023-04-25T12:39:53;2.27;;;1.23;;
3683;SDS011;1858;48.716;9.648;2023-04-25T12:42:21;3.00;;;0.50;;
3683;SDS011;1858;48.716;9.648;2023-04-25T12:44:49;3.03;;;1.13;;
3683;SDS011;1858;48.716;9.648;2023-04-25T12:50:41;1.50;;;0.50;;
3683;SDS011;1858;48.716;9.648;2023-04-25T12:53:11;2.37;;;0.60;;
3683;SDS011;1858;48.716;9.648;2023-04-25T12:55:40;1.37;;;0.53;;
3683;SDS011;1858;48.716;9.648;2023-04-25T12:58:08;1.27;;;0.50;;
3683;SDS011;1858;48.716;9.648;2023-04-25T13:00:36;1.40;;;0.57;;
3683;SDS011;1858;48.716;9.648;2023-04-25T13:03:05;1.27;;;0.40;;
3683;SDS011;1858;48.716;9.648;2023-04-25T13:05:33;1.20;;;0.50;;
3683;SDS011;1858;48.716;9.648;2023-04-25T13:08:02;1.67;;;0.50;;
3683;SDS011;1858;48.716;9.648;2023-04-25T13:10:31;1.30;;;0.40;;
3683;SDS011;1858;48.716;9.648;2023-04-25T13:13:00;2.00;;;0.93;;
3683;SDS011;1858;48.716;9.648;2023-04-25T13:15:29;1.60;;;0.70;;
3683;SDS011;1858;48.716;9.648;2023-04-25T13:17:57;3.67;;;1.00;;
3683;SDS011;1858;48.716;9.648;2023-04-25T13:20:25;2.33;;;0.60;;
3683;SDS011;1858;48.716;9.648;2023-04-25T13:22:54;1.97;;;0.60;;
3683;SDS011;1858;48.716;9.648;2023-04-25T13:25:22;2.87;;;0.73;;
3683;SDS011;1858;48.716;9.648;2023-04-25T13:27:51;1.90;;;1.00;;
3683;SDS011;1858;48.716;9.648;2023-04-25T13:30:21;1.60;;;0.73;;
3683;SDS011;1858;48.716;9.648;2023-04-25T13:32:49;1.90;;;0.90;;
3683;SDS011;1858;48.716;9.648;2023-04-25T13:35:25;1.63;;;0.70;;
3683;SDS011;1858;48.716;9.648;2023-04-25T13:37:54;3.37;;;1.07;;
3683;SDS011;1858;48.716;9.648;2023-04-25T13:40:22;2.40;;;0.93;;
3683;SDS011;1858;48.716;9.648;2023-04-25T13:42:51;2.70;;;0.90;;
3683;SDS011;1858;48.716;9.648;2023-04-25T13:45:22;2.67;;;1.00;;
3683;SDS011;1858;48.716;9.648;2023-04-25T13:47:50;4.20;;;0.80;;
3683;SDS011;1858;48.716;9.648;2023-04-25T13:50:20;1.93;;;1.00;;
3683;SDS011;1858;48.716;9.648;2023-04-25T13:52:50;2.10;;;1.30;;
3683;SDS011;1858;48.716;9.648;2023-04-25T13:55:18;2.37;;;0.83;;
3683;SDS011;1858;48.716;9.648;2023-04-25T13:57:47;2.07;;;1.10;;
3683;SDS011;1858;48.716;9.648;2023-04-25T14:00:15;5.43;;;0.90;;
3683;SDS011;1858;48.716;9.648;2023-04-25T14:02:44;2.67;;;1.00;;
3683;SDS011;1858;48.716;9.648;2023-04-25T14:05:12;2.30;;;1.20;;
3683;SDS011;1858;48.716;9.648;2023-04-25T14:07:41;2.60;;;1.20;;
3683;SDS011;1858;48.716;9.648;2023-04-25T14:10:11;3.27;;;1.10;;
3683;SDS011;1858;48.716;9.648;2023-04-25T14:12:40;2.70;;;1.40;;
3683;SDS011;1858;48.716;9.648;2023-04-25T14:15:09;2.87;;;1.27;;
3683;SDS011;1858;48.716;9.648;2023-04-25T14:17:37;2.70;;;1.47;;
3683;SDS011;1858;48.716;9.648;2023-04-25T14:20:06;5.37;;;1.80;;
3683;SDS011;1858;48.716;9.648;2023-04-25T14:22:37;2.00;;;0.90;;
3683;SDS011;1858;48.716;9.648;2023-04-25T14:25:07;2.80;;;1.47;;
3683;SDS011;1858;48.716;9.648;2023-04-25T14:27:36;4.67;;;2.00;;
3683;SDS011;1858;48.716;9.648;2023-04-25T14:30:05;4.93;;;1.70;;
3683;SDS011;1858;48.716;9.648;2023-04-25T14:32:35;7.50;;;2.00;;
3683;SDS011;1858;48.716;9.648;2023-04-25T14:35:05;11.53;;;4.10;;
3683;SDS011;1858;48.716;9.648;2023-04-25T14:37:33;3.77;;;1.93;;
3683;SDS011;1858;48.716;9.648;2023-04-25T14:40:02;4.10;;;1.70;;
3683;SDS011;1858;48.716;9.648;2023-04-25T14:42:31;4.07;;;2.63;;
3683;SDS011;1858;48.716;9.648;2023-04-25T14:45:00;4.50;;;2.40;;
3683;SDS011;1858;48.716;9.648;2023-04-25T14:47:29;3.70;;;2.07;;
3683;SDS011;1858;48.716;9.648;2023-04-25T14:49:58;9.50;;;4.00;;
3683;SDS011;1858;48.716;9.648;2023-04-25T14:52:28;18.00;;;4.57;;
3683;SDS011;1858;48.716;9.648;2023-04-25T14:55:00;13.63;;;3.10;;
3683;SDS011;1858;48.716;9.648;2023-04-25T14:57:31;13.13;;;3.07;;
3683;SDS011;1858;48.716;9.648;2023-04-25T15:00:00;4.40;;;2.77;;
3683;SDS011;1858;48.716;9.648;2023-04-25T15:02:28;6.60;;;2.83;;
3683;SDS011;1858;48.716;9.648;2023-04-25T15:04:59;17.43;;;5.20;;
3683;SDS011;1858;48.716;9.648;2023-04-25T15:07:29;5.93;;;3.10;;
3683;SDS011;1858;48.716;9.648;2023-04-25T15:09:58;5.60;;;2.70;;
3683;SDS011;1858;48.716;9.648;2023-04-25T15:12:26;5.17;;;3.00;;
3683;SDS011;1858;48.716;9.648;2023-04-25T15:14:55;4.53;;;2.20;;
3683;SDS011;1858;48.716;9.648;2023-04-25T15:17:26;8.30;;;3.30;;
3683;SDS011;1858;48.716;9.648;2023-04-25T15:19:57;5.83;;;2.73;;
3683;SDS011;1858;48.716;9.648;2023-04-25T15:22:26;5.90;;;2.80;;
3683;SDS011;1858;48.716;9.648;2023-04-25T15:24:54;4.93;;;2.63;;
3683;SDS011;1858;48.716;9.648;2023-04-25T15:27:23;4.10;;;2.33;;
3683;SDS011;1858;48.716;9.648;2023-04-25T15:29:53;3.00;;;2.30;;
3683;SDS011;1858;48.716;9.648;2023-04-25T15:32:22;4.77;;;3.00;;
3683;SDS011;1858;48.716;9.648;2023-04-25T15:34:50;4.53;;;2.10;;
3683;SDS011;1858;48.716;9.648;2023-04-25T15:37:19;4.07;;;1.97;;
3683;SDS011;1858;48.716;9.648;2023-04-25T15:39:47;4.50;;;2.33;;
3683;SDS011;1858;48.716;9.648;2023-04-25T15:42:16;4.83;;;2.00;;
3683;SDS011;1858;48.716;9.648;2023-04-25T15:44:45;7.20;;;2.50;;
3683;SDS011;1858;48.716;9.648;2023-04-25T15:47:13;7.07;;;2.80;;
3683;SDS011;1858;48.716;9.648;2023-04-25T15:49:42;4.20;;;2.30;;